Time;durP1;ratioP1;P1;durP2;ratioP2;P2;SDS_P1;SDS_P2;PMS_P1;PMS_P2;Temp;Humidity;BMP_temperature;BMP_pressure;BME280_temperature;BME280_humidity;BME280_pressure;Samples;Min_cycle;Max_cycle;Signal;HPM_P1;HPM_P2
2023/09/27 00:01:43;;;;;;;34.83;18.63;;;14.10;99.90;13.40;101205;;;;573050;246;24083;-77
2023/09/27 00:04:11;;;;;;;34.67;18.43;;;14.00;99.90;13.40;101214;;;;573225;246;24111;-76
2023/09/27 00:06:39;;;;;;;31.97;18.23;;;14.10;99.90;13.40;101218;;;;573062;246;24079;-76
2023/09/27 00:09:08;;;;;;;39.17;20.33;;;14.10;99.90;13.40;101219;;;;572897;246;24080;-76
2023/09/27 00:11:38;;;;;;;29.60;18.80;;;14.10;99.90;13.40;101214;;;;573056;246;24121;-76
2023/09/27 00:14:03;;;;;;;31.50;19.57;;;14.10;99.90;13.40;101209;;;;572671;246;24084;-77
2023/09/27 00:16:31;;;;;;;34.07;18.97;;;14.10;99.90;13.40;101210;;;;573429;246;24087;-76
2023/09/27 00:19:00;;;;;;;32.07;17.33;;;14.10;99.90;13.40;101205;;;;574105;245;24164;-75
2023/09/27 00:21:27;;;;;;;35.03;18.67;;;14.00;99.90;13.40;101208;;;;574611;246;24106;-76
2023/09/27 00:23:55;;;;;;;33.20;19.10;;;14.10;99.90;13.40;101203;;;;574362;246;24087;-76
2023/09/27 00:26:25;;;;;;;44.67;21.63;;;14.00;99.90;13.40;101208;;;;573343;246;24089;-76
2023/09/27 00:28:53;;;;;;;38.87;18.73;;;14.00;99.90;13.40;101208;;;;573596;246;24113;-76
2023/09/27 00:31:21;;;;;;;42.63;19.87;;;14.00;99.90;13.30;101209;;;;573563;246;24151;-77
2023/09/27 00:33:50;;;;;;;34.87;19.87;;;14.00;99.90;13.30;101202;;;;573644;246;24175;-77
2023/09/27 00:36:19;;;;;;;38.53;19.23;;;14.00;99.90;13.30;101194;;;;573562;246;24088;-77
2023/09/27 00:38:47;;;;;;;38.20;19.07;;;13.90;99.90;13.30;101197;;;;573178;246;24174;-77
2023/09/27 00:41:15;;;;;;;34.13;18.67;;;14.00;99.90;13.30;101190;;;;573328;246;24067;-78
2023/09/27 00:43:43;;;;;;;36.13;19.20;;;13.90;99.90;13.30;101191;;;;573238;246;24120;-77
2023/09/27 00:46:11;;;;;;;30.93;19.13;;;13.90;99.90;13.30;101192;;;;573633;246;24078;-78
2023/09/27 00:48:41;;;;;;;36.50;19.00;;;13.90;99.90;13.20;101190;;;;573530;246;24074;-77
2023/09/27 00:51:06;;;;;;;38.87;19.63;;;13.90;99.90;13.20;101180;;;;573370;246;24085;-77
2023/09/27 00:53:35;;;;;;;38.23;20.67;;;13.90;99.90;13.20;101187;;;;575911;245;24095;-78
2023/09/27 00:56:04;;;;;;;36.63;20.50;;;13.90;99.90;13.20;101178;;;;590305;239;24004;-76
2023/09/27 00:58:32;;;;;;;48.83;20.53;;;13.90;99.90;13.20;101179;;;;579588;244;24086;-77
2023/09/27 01:00:59;;;;;;;35.23;18.83;;;13.90;99.90;13.20;101183;;;;590156;239;24009;-76
2023/09/27 01:03:27;;;;;;;37.17;18.90;;;13.80;99.90;13.10;101179;;;;590310;235;23999;-75
2023/09/27 01:05:55;;;;;;;41.10;19.60;;;13.80;99.90;13.10;101175;;;;582456;243;24044;-77
2023/09/27 01:08:23;;;;;;;33.70;19.27;;;13.80;99.90;13.10;101178;;;;590089;239;24088;-77
2023/09/27 01:10:51;;;;;;;36.97;19.73;;;13.80;99.90;13.10;101178;;;;590002;239;23999;-78
2023/09/27 01:13:22;;;;;;;34.23;19.20;;;13.80;99.90;13.10;101181;;;;589859;239;24000;-77
2023/09/27 01:15:47;;;;;;;35.63;19.67;;;13.80;99.90;13.10;101179;;;;599308;238;24015;-77
2023/09/27 01:18:15;;;;;;;33.40;19.47;;;13.80;99.90;13.10;101180;;;;590322;239;24038;-80
2023/09/27 01:20:43;;;;;;;36.97;20.03;;;13.80;99.90;13.10;101175;;;;590308;239;24036;-77
2023/09/27 01:23:10;;;;;;;37.20;19.70;;;13.80;99.90;13.10;101174;;;;590318;239;24043;-79
2023/09/27 01:25:38;;;;;;;30.63;18.60;;;13.80;99.90;13.10;101171;;;;590305;239;24018;-77
2023/09/27 01:28:09;;;;;;;42.73;20.87;;;13.80;99.90;13.10;101169;;;;589953;239;24009;-81
2023/09/27 01:30:37;;;;;;;36.67;19.53;;;13.70;99.90;13.00;101174;;;;590659;239;24018;-80
2023/09/27 01:33:09;;;;;;;37.83;19.53;;;13.70;99.90;13.00;101169;;;;600655;238;24021;-78
2023/09/27 01:35:43;;;;;;;38.23;20.00;;;13.70;99.90;13.00;101175;;;;590741;239;24076;-80
2023/09/27 01:38:08;;;;;;;36.93;19.73;;;13.60;99.90;13.00;101177;;;;590417;239;24006;-81
2023/09/27 01:40:44;;;;;;;39.53;19.57;;;13.60;99.90;13.00;101183;;;;590574;239;23997;-80
2023/09/27 01:43:11;;;;;;;35.90;20.27;;;13.60;99.90;12.90;101181;;;;590966;239;24072;-82
2023/09/27 01:45:39;;;;;;;36.47;21.03;;;13.60;99.90;12.90;101183;;;;589534;239;23997;-79
2023/09/27 01:48:07;;;;;;;36.47;17.47;;;13.60;99.90;12.90;101181;;;;591737;239;24005;-81
2023/09/27 01:50:35;;;;;;;35.40;20.37;;;13.60;99.90;12.90;101179;;;;591404;239;24077;-81
2023/09/27 01:53:03;;;;;;;33.13;19.37;;;13.60;99.90;12.90;101186;;;;591434;239;24105;-81
2023/09/27 01:55:31;;;;;;;36.83;20.70;;;13.50;99.90;12.90;101188;;;;591287;239;24065;-76
2023/09/27 01:57:59;;;;;;;35.60;21.37;;;13.50;99.90;12.90;101182;;;;590486;239;23995;-76
2023/09/27 02:00:30;;;;;;;35.57;20.10;;;13.50;99.90;12.90;101183;;;;590146;239;24087;-76
2023/09/27 02:02:58;;;;;;;37.37;19.17;;;13.50;99.90;12.90;101184;;;;589792;239;24014;-79
2023/09/27 02:05:22;;;;;;;37.23;19.80;;;13.50;99.90;12.80;101184;;;;589821;239;24012;-77
2023/09/27 02:07:50;;;;;;;34.13;18.53;;;13.50;99.90;12.90;101178;;;;590414;239;24018;-76
2023/09/27 02:10:19;;;;;;;32.63;19.33;;;13.50;99.90;12.90;101173;;;;590362;239;23999;-76
2023/09/27 02:12:48;;;;;;;40.07;20.20;;;13.50;99.90;12.90;101179;;;;590334;239;24014;-78
2023/09/27 02:15:16;;;;;;;33.93;19.57;;;13.50;99.90;12.90;101170;;;;590388;239;24064;-80
2023/09/27 02:17:44;;;;;;;35.23;19.53;;;13.50;99.90;12.90;101171;;;;589950;239;24023;-76
2023/09/27 02:20:12;;;;;;;43.20;21.33;;;13.50;99.90;12.90;101167;;;;590096;239;23998;-77
2023/09/27 02:22:41;;;;;;;34.77;19.70;;;13.50;99.90;12.90;101172;;;;589975;239;24014;-76
2023/09/27 02:25:09;;;;;;;36.87;19.73;;;13.50;99.90;12.90;101163;;;;590796;239;23987;-77
2023/09/27 02:27:40;;;;;;;35.07;20.33;;;13.50;99.90;12.90;101164;;;;590594;239;26238;-79
2023/09/27 02:30:12;;;;;;;35.60;20.37;;;13.50;99.90;12.90;101167;;;;590235;239;24038;-79
2023/09/27 02:32:37;;;;;;;37.97;20.50;;;13.50;99.90;12.90;101164;;;;589639;239;23996;-80
2023/09/27 02:35:05;;;;;;;45.27;21.03;;;13.50;99.90;12.90;101164;;;;589833;239;26203;-80
2023/09/27 02:37:33;;;;;;;40.40;20.90;;;13.50;99.90;12.90;101162;;;;590244;239;24019;-81
2023/09/27 02:40:11;;;;;;;36.97;19.53;;;13.50;99.90;12.90;101158;;;;590433;239;24003;-78
2023/09/27 02:42:31;;;;;;;37.47;20.17;;;13.50;99.90;12.90;101167;;;;590460;239;24032;-80
2023/09/27 02:44:59;;;;;;;40.47;20.93;;;13.50;99.90;12.90;101166;;;;591207;239;23997;-81
2023/09/27 02:47:28;;;;;;;47.17;21.93;;;13.50;99.90;12.90;101163;;;;591321;239;24015;-80
2023/09/27 02:49:57;;;;;;;38.73;20.80;;;13.50;99.90;12.90;101162;;;;591253;239;24036;-80
2023/09/27 02:52:25;;;;;;;45.23;20.97;;;13.50;99.90;12.80;101155;;;;590960;239;24091;-81
2023/09/27 02:54:53;;;;;;;38.83;21.47;;;13.50;99.90;12.80;101157;;;;590955;239;24018;-80
2023/09/27 02:57:20;;;;;;;40.93;20.83;;;13.40;99.90;12.80;101156;;;;590859;239;24012;-81
2023/09/27 02:59:48;;;;;;;41.20;20.60;;;13.40;99.90;12.70;101165;;;;590584;239;23998;-78
2023/09/27 03:02:16;;;;;;;41.83;23.03;;;13.40;99.90;12.70;101164;;;;590244;239;24003;-78
2023/09/27 03:04:44;;;;;;;43.03;22.23;;;13.30;99.90;12.70;101162;;;;590034;239;24041;-77
2023/09/27 03:07:14;;;;;;;40.83;20.43;;;13.30;99.90;12.70;101160;;;;590664;239;24006;-76
2023/09/27 03:09:40;;;;;;;34.47;20.43;;;13.30;99.90;12.60;101162;;;;590435;239;24003;-76
2023/09/27 03:12:08;;;;;;;39.83;20.50;;;13.20;99.90;12.50;101164;;;;591356;239;24041;-77
2023/09/27 03:14:37;;;;;;;40.37;21.93;;;13.20;99.90;12.50;101163;;;;590284;239;24018;-79
2023/09/27 03:17:04;;;;;;;43.23;21.57;;;13.20;99.90;12.50;101159;;;;590664;239;24010;-82
2023/09/27 03:19:32;;;;;;;40.50;21.50;;;13.10;99.90;12.40;101164;;;;590257;239;24065;-78
2023/09/27 03:22:00;;;;;;;38.97;20.87;;;13.10;99.90;12.40;101163;;;;590269;239;24021;-79
2023/09/27 03:24:29;;;;;;;38.63;21.73;;;13.10;99.90;12.40;101155;;;;590326;239;23994;-80
2023/09/27 03:26:55;;;;;;;36.97;20.03;;;13.00;99.90;12.30;101149;;;;590243;239;24029;-81
2023/09/27 03:29:24;;;;;;;34.37;19.30;;;12.90;99.90;12.30;101148;;;;590533;239;24018;-81
2023/09/27 03:31:53;;;;;;;37.67;19.33;;;12.90;99.90;12.20;101154;;;;590159;239;24025;-77
2023/09/27 03:34:25;;;;;;;38.33;20.47;;;12.90;99.90;12.20;101157;;;;589951;239;24025;-80
2023/09/27 03:36:55;;;;;;;39.20;20.80;;;12.90;99.90;12.20;101155;;;;589859;239;23999;-79
2023/09/27 03:39:22;;;;;;;40.60;21.17;;;12.80;99.90;12.20;101149;;;;589867;239;24044;-78
2023/09/27 03:42:05;;;;;;;38.67;19.50;;;12.80;99.90;12.20;101154;;;;590101;239;24006;-80
2023/09/27 03:44:33;;;;;;;40.80;21.30;;;12.90;99.90;12.20;101155;;;;590068;239;24020;-81
2023/09/27 03:47:01;;;;;;;38.57;21.07;;;12.90;99.90;12.30;101148;;;;590419;239;25061;-81
2023/09/27 03:49:29;;;;;;;43.43;21.63;;;12.90;99.90;12.20;101148;;;;590430;239;24001;-81
2023/09/27 03:51:57;;;;;;;41.27;20.60;;;12.90;99.90;12.20;101155;;;;590430;239;24004;-77
2023/09/27 03:54:25;;;;;;;37.87;21.30;;;12.90;99.90;12.20;101159;;;;591504;239;24010;-77
2023/09/27 03:56:54;;;;;;;42.23;21.00;;;12.90;99.90;12.20;101163;;;;591624;239;23994;-80
2023/09/27 03:59:21;;;;;;;38.27;21.27;;;12.80;99.90;12.10;101163;;;;591278;239;23987;-78
2023/09/27 04:01:49;;;;;;;37.80;19.43;;;12.80;99.90;12.10;101157;;;;591118;239;24084;-77
2023/09/27 04:04:20;;;;;;;38.30;21.27;;;12.80;99.90;12.10;101160;;;;590898;239;24097;-77
2023/09/27 04:06:44;;;;;;;39.93;21.03;;;12.80;99.90;12.10;101163;;;;590674;239;23996;-80
2023/09/27 04:09:12;;;;;;;40.30;20.87;;;12.80;99.90;12.20;101163;;;;591375;239;25048;-76
2023/09/27 04:11:40;;;;;;;43.97;22.43;;;12.90;99.90;12.30;101156;;;;591384;239;24044;-77
2023/09/27 04:14:08;;;;;;;47.93;19.07;;;12.90;99.90;12.40;101159;;;;591019;239;25137;-79
2023/09/27 04:16:36;;;;;;;42.77;20.73;;;13.00;99.90;12.40;101154;;;;591508;239;24045;-81
2023/09/27 04:19:04;;;;;;;44.73;21.20;;;13.00;99.90;12.50;101152;;;;591145;239;24013;-80
2023/09/27 04:21:36;;;;;;;36.47;19.50;;;13.10;99.90;12.50;101150;;;;590760;239;24006;-80
2023/09/27 04:24:04;;;;;;;86.33;20.23;;;13.10;99.90;12.50;101161;;;;591185;239;24024;-79
2023/09/27 04:26:28;;;;;;;46.73;19.73;;;13.20;99.90;12.60;101154;;;;590860;239;24013;-82
2023/09/27 04:28:56;;;;;;;74.80;20.00;;;13.20;99.90;12.60;101154;;;;591006;239;24010;-81
2023/09/27 04:31:24;;;;;;;55.07;19.23;;;13.20;99.90;12.60;101152;;;;590768;239;24048;-82
2023/09/27 04:33:52;;;;;;;79.60;19.37;;;13.20;99.90;12.70;101150;;;;591212;239;24008;-79
2023/09/27 04:36:20;;;;;;;47.20;18.90;;;13.30;99.90;12.70;101149;;;;591141;239;24009;-81
2023/09/27 04:38:49;;;;;;;49.73;19.30;;;13.30;99.90;12.70;101163;;;;590747;239;24020;-82
2023/09/27 04:41:17;;;;;;;47.40;17.17;;;13.40;99.90;12.70;101164;;;;590621;239;23994;-76
2023/09/27 04:43:45;;;;;;;44.03;18.57;;;13.40;99.90;12.80;101155;;;;588610;239;24058;-79
2023/09/27 04:46:19;;;;;;;71.60;19.83;;;13.40;99.90;12.80;101153;;;;590769;239;24033;-81
2023/09/27 04:48:43;;;;;;;45.70;18.60;;;13.40;99.90;12.80;101156;;;;590055;239;23999;-79
2023/09/27 04:51:15;;;;;;;49.20;19.47;;;13.50;99.90;12.90;101157;;;;590336;239;24049;-82
2023/09/27 04:53:39;;;;;;;42.20;20.43;;;13.50;99.90;12.90;101158;;;;590329;239;24030;-78
2023/09/27 04:56:11;;;;;;;47.13;20.63;;;13.50;99.90;12.90;101154;;;;590413;239;24043;-79
2023/09/27 04:58:35;;;;;;;53.37;20.37;;;13.60;99.90;13.00;101154;;;;589985;239;23996;-77
2023/09/27 05:01:03;;;;;;;38.20;19.23;;;13.60;99.90;13.00;101159;;;;590072;239;24021;-78
2023/09/27 05:03:34;;;;;;;38.93;19.13;;;13.60;99.90;13.10;101156;;;;590537;235;24078;-79
2023/09/27 05:06:02;;;;;;;37.47;20.80;;;13.70;99.90;13.20;101153;;;;591297;239;24036;-78
2023/09/27 05:08:27;;;;;;;33.23;19.37;;;13.80;99.90;13.20;101140;;;;591216;239;23997;-81
2023/09/27 05:10:56;;;;;;;35.07;20.13;;;13.90;99.90;13.40;101154;;;;591033;239;24081;-80
2023/09/27 05:13:27;;;;;;;36.17;20.63;;;13.90;99.90;13.50;101153;;;;591116;239;24032;-79
2023/09/27 05:15:52;;;;;;;36.53;21.47;;;14.00;99.90;13.60;101145;;;;588570;239;24018;-77
2023/09/27 05:18:22;;;;;;;45.17;22.43;;;14.20;99.90;13.70;101151;;;;590781;239;24016;-78
2023/09/27 05:20:48;;;;;;;38.90;22.03;;;14.20;99.90;13.80;101153;;;;591147;239;24037;-79
2023/09/27 05:23:17;;;;;;;44.80;22.93;;;14.40;99.90;13.80;101152;;;;591216;239;23994;-76
2023/09/27 05:25:45;;;;;;;44.80;23.57;;;14.50;99.90;14.00;101143;;;;591170;239;24009;-77
2023/09/27 05:28:14;;;;;;;43.17;23.50;;;14.60;99.90;14.10;101149;;;;591087;239;23989;-76
2023/09/27 05:30:43;;;;;;;38.60;22.93;;;14.70;99.90;14.10;101148;;;;591130;239;24064;-76
2023/09/27 05:33:11;;;;;;;39.10;23.17;;;14.80;99.90;14.30;101145;;;;590906;239;24015;-79
2023/09/27 05:35:40;;;;;;;41.70;22.03;;;14.90;99.90;14.40;101152;;;;590331;239;24011;-78
2023/09/27 05:38:09;;;;;;;44.37;24.07;;;15.00;99.90;14.40;101143;;;;590521;239;24009;-75
2023/09/27 05:40:37;;;;;;;42.60;24.00;;;15.00;99.90;14.40;101149;;;;590856;239;24099;-76
2023/09/27 05:43:06;;;;;;;49.10;25.20;;;15.00;99.90;14.40;101147;;;;590756;239;24024;-77
2023/09/27 05:45:35;;;;;;;44.07;23.50;;;15.00;99.90;14.50;101150;;;;590294;239;23999;-77
2023/09/27 05:48:06;;;;;;;40.77;24.73;;;15.00;99.90;14.50;101152;;;;589960;239;23997;-77
2023/09/27 05:50:31;;;;;;;43.27;23.60;;;15.10;99.90;14.60;101151;;;;595593;239;24005;-76
2023/09/27 05:53:00;;;;;;;43.27;24.57;;;15.10;99.90;14.70;101150;;;;590329;239;24062;-76
2023/09/27 05:55:28;;;;;;;45.13;23.23;;;15.20;99.90;14.70;101155;;;;590350;239;24054;-76
2023/09/27 05:57:56;;;;;;;49.77;25.57;;;15.20;99.90;14.70;101157;;;;590391;239;24128;-75
2023/09/27 06:00:37;;;;;;;46.67;24.13;;;15.20;99.90;14.70;101154;;;;590320;239;24007;-77
2023/09/27 06:02:59;;;;;;;48.23;25.87;;;15.20;99.90;14.70;101168;;;;589856;239;24029;-76
2023/09/27 06:05:25;;;;;;;42.53;24.47;;;15.20;99.90;14.80;101159;;;;589738;239;23999;-77
2023/09/27 06:07:53;;;;;;;46.10;25.03;;;15.30;99.90;14.80;101157;;;;590222;239;24093;-82
2023/09/27 06:10:22;;;;;;;41.07;24.37;;;15.30;99.90;14.80;101156;;;;590296;239;24079;-81
2023/09/27 06:12:49;;;;;;;45.10;26.20;;;15.40;99.90;14.90;101153;;;;590297;239;24020;-79
2023/09/27 06:15:20;;;;;;;48.93;26.23;;;15.50;99.90;15.00;101156;;;;590326;239;24034;-77
2023/09/27 06:17:50;;;;;;;52.13;26.07;;;15.70;99.90;15.20;101159;;;;591617;239;24088;-77
2023/09/27 06:20:22;;;;;;;70.60;27.80;;;15.80;99.90;15.30;101150;;;;591606;239;23995;-80
2023/09/27 06:22:52;;;;;;;62.47;26.90;;;16.00;99.90;15.50;101158;;;;590940;239;24022;-81
2023/09/27 06:25:24;;;;;;;67.63;29.10;;;16.00;99.90;15.80;101166;;;;590935;239;24033;-81
2023/09/27 06:27:48;;;;;;;67.90;29.07;;;16.30;99.90;15.80;101169;;;;590057;239;24006;-77
2023/09/27 06:30:16;;;;;;;69.63;28.27;;;16.40;99.90;15.70;101175;;;;590694;239;24020;-76
2023/09/27 06:32:45;;;;;;;69.67;28.07;;;16.30;99.90;15.70;101169;;;;590531;239;24019;-77
2023/09/27 06:35:14;;;;;;;61.83;27.93;;;16.30;99.90;15.70;101169;;;;590480;239;23989;-77
2023/09/27 06:37:43;;;;;;;50.97;26.77;;;16.30;99.90;15.70;101168;;;;590646;239;24008;-78
2023/09/27 06:40:16;;;;;;;73.40;28.03;;;16.50;99.90;15.90;101171;;;;590482;239;24082;-78
2023/09/27 06:42:39;;;;;;;49.03;27.40;;;16.70;99.90;16.10;101168;;;;590082;239;24012;-78
2023/09/27 06:45:10;;;;;;;53.43;28.90;;;17.00;99.90;16.40;101164;;;;590687;239;24014;-81
2023/09/27 06:47:38;;;;;;;44.47;27.83;;;16.90;99.90;16.70;101172;;;;590566;239;24004;-81
2023/09/27 06:50:04;;;;;;;49.37;28.77;;;17.30;99.90;17.20;101175;;;;590495;239;24121;-77
2023/09/27 06:52:31;;;;;;;47.93;29.13;;;17.70;99.90;17.60;101185;;;;590280;239;24030;-79
2023/09/27 06:54:59;;;;;;;45.50;28.43;;;18.20;99.90;17.70;101184;;;;589909;239;24069;-76
2023/09/27 06:57:27;;;;;;;44.03;27.87;;;18.40;99.90;17.80;101182;;;;589857;239;24015;-76
2023/09/27 06:59:56;;;;;;;46.13;27.07;;;18.60;99.90;17.90;101177;;;;589991;239;24057;-77
2023/09/27 07:02:24;;;;;;;38.57;26.23;;;18.90;99.90;18.40;101168;;;;589720;239;23013;-76
2023/09/27 07:04:54;;;;;;;39.07;26.57;;;19.60;99.90;19.20;101162;;;;589951;239;24073;-75
2023/09/27 07:07:22;;;;;;;38.97;25.33;;;20.50;99.90;20.00;101179;;;;590351;239;23027;-76
2023/09/27 07:09:51;;;;;;;34.27;23.90;;;21.10;99.90;20.60;101168;;;;590311;239;24028;-76
2023/09/27 07:12:19;;;;;;;30.33;22.37;;;21.90;99.90;21.40;101183;;;;590322;239;23996;-77
2023/09/27 07:14:48;;;;;;;34.13;22.53;;;22.70;99.90;22.30;101179;;;;590309;239;23995;-76
2023/09/27 07:17:17;;;;;;;28.03;20.93;;;23.50;99.90;23.10;101178;;;;590339;239;24020;-75
2023/09/27 07:19:46;;;;;;;31.10;22.17;;;24.20;99.90;23.70;101179;;;;590226;239;24076;-75
2023/09/27 07:22:15;;;;;;;27.77;20.97;;;25.00;99.90;24.50;101174;;;;590114;239;23018;-77
2023/09/27 07:24:43;;;;;;;22.80;19.63;;;25.60;99.90;25.00;101177;;;;589838;239;23046;-76
2023/09/27 07:27:11;;;;;;;23.63;19.63;;;26.00;99.90;25.50;101173;;;;590114;239;23021;-76
2023/09/27 07:29:40;;;;;;;24.67;21.07;;;26.50;99.90;26.00;101180;;;;591271;239;23029;-76
2023/09/27 07:32:10;;;;;;;23.20;19.60;;;27.20;99.90;26.70;101181;;;;591162;239;24010;-75
2023/09/27 07:34:37;;;;;;;26.70;21.80;;;27.80;99.90;27.30;101191;;;;591049;239;23018;-77
2023/09/27 07:37:05;;;;;;;22.98;19.90;;;27.70;99.90;28.40;101193;;;;590941;239;23088;-77
2023/09/27 07:39:33;;;;;;;24.60;20.10;;;28.80;99.90;29.60;101189;;;;591229;239;23005;-78
2023/09/27 07:42:01;;;;;;;26.77;20.48;;;29.90;99.90;30.10;101185;;;;590973;239;24021;-80
2023/09/27 07:44:32;;;;;;;26.92;20.98;;;30.60;99.90;30.20;101196;;;;590951;239;23019;-79
2023/09/27 07:46:57;;;;;;;23.62;21.20;;;30.80;99.90;31.00;101196;;;;590638;239;24122;-83
2023/09/27 07:49:25;;;;;;;24.48;21.35;;;31.50;99.90;32.10;101201;;;;590654;239;23026;-85
2023/09/27 07:51:53;;;;;;;23.08;20.58;;;32.50;98.40;33.30;101198;;;;590684;239;23058;-82
2023/09/27 07:54:22;;;;;;;22.27;19.98;;;33.70;95.20;33.90;101206;;;;590224;239;24018;-84
2023/09/27 07:56:49;;;;;;;22.92;20.67;;;34.40;91.20;33.50;101200;;;;590323;239;23024;-86
2023/09/27 07:59:17;;;;;;;26.42;21.62;;;33.90;87.90;33.00;101203;;;;590183;239;24061;-82
2023/09/27 08:01:46;;;;;;;24.25;21.65;;;33.80;88.10;33.00;101206;;;;590166;239;23049;-82
2023/09/27 08:04:15;;;;;;;23.67;21.25;;;33.80;88.00;33.20;101224;;;;590237;239;23018;-84
2023/09/27 08:06:42;;;;;;;24.23;21.73;;;33.90;88.00;34.00;101232;;;;589838;239;24096;-78
2023/09/27 08:09:12;;;;;;;23.77;20.98;;;34.50;83.30;33.60;101227;;;;590334;239;24067;-78
2023/09/27 08:11:39;;;;;;;22.75;20.48;;;34.40;83.20;33.00;101215;;;;590310;239;24061;-84
2023/09/27 08:14:08;;;;;;;24.45;21.75;;;34.00;83.50;32.20;101216;;;;590327;239;23016;-76
2023/09/27 08:16:35;;;;;;;23.40;20.37;;;33.40;84.10;32.10;101215;;;;590312;239;24046;-78
2023/09/27 08:19:02;;;;;;;22.55;20.17;;;32.90;86.10;33.40;101218;;;;590340;239;23047;-82
2023/09/27 08:21:30;;;;;;;21.87;19.48;;;33.80;85.70;35.00;101207;;;;590263;239;23017;-83
2023/09/27 08:23:58;;;;;;;23.02;20.67;;;35.20;82.20;36.50;101211;;;;590342;239;23000;-77
2023/09/27 08:26:26;;;;;;;23.48;19.70;;;36.80;78.50;37.50;101217;;;;590192;239;23033;-77
2023/09/27 08:28:55;;;;;;;23.77;19.42;;;38.70;69.30;38.10;101223;;;;590055;239;23022;-78
2023/09/27 08:31:23;;;;;;;21.48;19.33;;;39.40;66.00;38.90;101217;;;;589914;239;23013;-81
2023/09/27 08:33:52;;;;;;;21.45;19.20;;;40.10;64.20;39.50;101220;;;;590005;239;22990;-79
2023/09/27 08:36:21;;;;;;;21.30;19.30;;;40.80;62.40;40.00;101224;;;;589972;239;23028;-79
2023/09/27 08:38:49;;;;;;;22.25;19.80;;;41.50;60.50;40.70;101224;;;;590082;239;23013;-80
2023/09/27 08:41:24;;;;;;;21.10;19.10;;;42.30;57.50;41.50;101226;;;;592022;239;23012;-78
2023/09/27 08:43:47;;;;;;;22.70;20.50;;;42.20;57.40;41.80;101229;;;;591342;239;23017;-80
2023/09/27 08:46:19;;;;;;;21.08;18.80;;;42.60;55.80;42.00;101232;;;;591228;239;23009;-81
2023/09/27 08:48:43;;;;;;;22.80;20.48;;;43.00;55.40;42.30;101231;;;;591333;239;23013;-83
2023/09/27 08:51:11;;;;;;;21.67;19.58;;;43.40;53.90;42.30;101226;;;;590950;239;23024;-79
2023/09/27 08:53:42;;;;;;;32.85;20.83;;;43.50;53.70;42.60;101231;;;;591636;239;22999;-81
2023/09/27 08:56:07;;;;;;;21.75;19.42;;;43.90;51.20;42.40;101239;;;;591653;239;23028;-79
2023/09/27 08:58:36;;;;;;;23.60;20.60;;;44.00;51.30;42.60;101240;;;;591454;239;24077;-87
2023/09/27 09:01:04;;;;;;;23.48;20.90;;;43.90;51.20;42.30;101246;;;;591956;239;23075;-85
2023/09/27 09:03:32;;;;;;;21.87;19.90;;;43.90;51.50;42.60;101239;;;;591222;235;23085;-85
2023/09/27 09:06:00;;;;;;;23.75;21.27;;;44.00;50.60;42.60;101243;;;;591005;239;23015;-86
2023/09/27 09:08:29;;;;;;;22.90;20.60;;;44.00;50.80;42.50;101234;;;;591284;239;23034;-86
2023/09/27 09:11:00;;;;;;;24.35;21.08;;;43.90;50.70;42.20;101231;;;;591288;239;23028;-86
2023/09/27 09:13:25;;;;;;;22.77;19.80;;;43.80;50.20;41.80;101218;;;;590601;239;23096;-86
2023/09/27 09:15:53;;;;;;;23.70;20.77;;;43.40;50.60;41.00;101214;;;;590723;239;23020;-85
2023/09/27 09:18:32;;;;;;;22.40;20.20;;;42.70;50.80;40.00;101221;;;;590584;239;24022;-84
2023/09/27 09:21:08;;;;;;;33.13;22.20;;;41.90;52.10;39.20;101231;;;;590474;239;23015;-83
2023/09/27 09:23:36;;;;;;;27.98;19.85;;;41.00;53.20;37.60;101235;;;;588077;239;23045;-83
2023/09/27 09:26:05;;;;;;;19.60;17.67;;;39.80;54.90;36.70;101243;;;;590322;239;24057;-80
2023/09/27 09:28:36;;;;;;;20.55;18.37;;;38.60;56.90;36.00;101244;;;;590243;239;23009;-85
2023/09/27 09:31:00;;;;;;;23.35;21.02;;;37.70;58.20;35.50;101251;;;;585388;239;34886;-84
2023/09/27 09:33:36;;;;;;;20.77;18.85;;;37.10;59.60;35.20;101241;;;;590606;239;23032;-79
2023/09/27 09:35:58;;;;;;;18.67;16.87;;;36.80;60.30;35.50;101240;;;;590226;239;23031;-78
2023/09/27 09:38:30;;;;;;;20.15;17.23;;;36.80;61.50;36.20;101228;;;;590358;239;23027;-77
2023/09/27 09:40:54;;;;;;;21.87;16.73;;;37.30;61.40;36.60;101224;;;;589904;239;23043;-78
2023/09/27 09:43:34;;;;;;;20.77;18.58;;;37.80;60.00;37.20;101231;;;;599857;239;23031;-81
2023/09/27 09:46:06;;;;;;;17.75;16.10;;;38.40;59.40;37.30;101233;;;;580108;244;23059;-76
2023/09/27 09:48:35;;;;;;;17.23;15.55;;;38.60;59.10;37.40;101231;;;;579952;244;23051;-76
2023/09/27 09:51:07;;;;;;;20.27;16.62;;;38.80;58.90;37.30;101236;;;;582901;241;23077;-76
2023/09/27 09:53:38;;;;;;;18.60;16.80;;;38.80;58.20;37.50;101232;;;;591733;239;23046;-76
2023/09/27 09:56:06;;;;;;;18.27;16.33;;;39.00;58.00;37.50;101231;;;;590998;239;24079;-78
2023/09/27 09:58:37;;;;;;;20.33;17.62;;;39.10;57.70;37.30;101230;;;;591012;239;24077;-82
2023/09/27 10:01:01;;;;;;;19.05;17.20;;;38.90;58.20;37.40;101234;;;;590293;239;23033;-79
2023/09/27 10:03:36;;;;;;;19.60;17.50;;;38.90;57.80;37.20;101230;;;;588984;235;23035;-83
2023/09/27 10:06:02;;;;;;;23.42;18.20;;;38.80;58.10;36.90;101215;;;;590880;239;23063;-83
2023/09/27 10:08:38;;;;;;;23.12;18.37;;;38.50;58.60;36.50;101222;;;;587351;239;23017;-84
2023/09/27 10:11:06;;;;;;;23.60;18.52;;;38.20;58.70;36.00;101218;;;;592633;237;22996;-84
2023/09/27 10:13:33;;;;;;;44.08;21.10;;;37.70;59.80;35.30;101224;;;;591140;238;23014;-82
2023/09/27 10:16:10;;;;;;;26.73;18.05;;;37.10;60.40;35.00;101225;;;;586395;235;23028;-82
2023/09/27 10:18:35;;;;;;;18.83;16.80;;;36.60;62.20;34.80;101230;;;;588215;240;23016;-84
2023/09/27 10:21:07;;;;;;;19.67;16.48;;;36.30;63.00;34.90;101225;;;;588601;239;23034;-84
2023/09/27 10:23:34;;;;;;;19.20;17.30;;;36.20;63.60;34.70;101228;;;;589700;239;24076;-84
2023/09/27 10:26:17;;;;;;;19.70;17.65;;;36.20;63.00;34.50;101223;;;;586298;239;23044;-87
2023/09/27 10:29:17;;;;;;;20.45;17.20;;;35.90;64.30;34.00;101221;;;;588884;239;23002;-86
2023/09/27 10:31:58;;;;;;;58.38;43.67;;;35.50;64.90;33.10;101216;;;;588322;240;22996;-83
2023/09/27 10:34:30;;;;;;;20.58;18.37;;;34.60;66.70;32.60;101213;;;;582512;242;23091;-88
2023/09/27 10:37:02;;;;;;;27.67;19.48;;;33.80;68.70;31.90;101208;;;;585487;242;23098;-78
2023/09/27 10:39:29;;;;;;;22.65;17.85;;;32.10;72.90;31.10;101206;;;;588279;244;23121;-80
2023/09/27 10:41:57;;;;;;;24.33;17.77;;;32.10;72.90;30.20;101205;;;;586603;242;23111;-79
2023/09/27 10:44:31;;;;;;;20.85;16.58;;;31.20;75.30;29.40;101199;;;;588824;240;24135;-77
2023/09/27 10:47:02;;;;;;;34.35;18.33;;;30.30;78.00;28.60;101192;;;;586289;240;23095;-79
2023/09/27 10:49:27;;;;;;;19.45;17.02;;;29.50;81.00;28.10;101190;;;;589263;240;23073;-76
2023/09/27 10:51:54;;;;;;;21.12;16.67;;;28.90;83.80;27.60;101191;;;;586572;240;23100;-77
2023/09/27 10:54:25;;;;;;;19.87;16.20;;;28.20;86.60;27.10;101188;;;;589950;240;23106;-79
2023/09/27 10:56:57;;;;;;;20.60;16.48;;;27.70;89.10;26.80;101178;;;;586830;242;24103;-81
2023/09/27 10:59:24;;;;;;;21.90;15.82;;;27.30;90.80;26.50;101180;;;;589475;240;23083;-80
2023/09/27 11:01:52;;;;;;;18.60;15.60;;;27.00;91.80;26.30;101180;;;;586304;242;24121;-80